sensor_id;sensor_type;location;lat;lon;timestamp;pressure;altitude;pressure_sealevel;temperature;humidity
62703;BME280;66022;50.448;18.122;2023-02-28T00:03:37;100488.45;;;0.66;62.82
62703;BME280;66022;50.448;18.122;2023-02-28T00:07:51;100488.83;;;0.61;62.11
62703;BME280;66022;50.448;18.122;2023-02-28T00:12:05;100488.65;;;0.60;63.10
62703;BME280;66022;50.448;18.122;2023-02-28T00:16:20;100489.75;;;0.59;63.45
62703;BME280;66022;50.448;18.122;2023-02-28T00:20:33;100489.62;;;0.56;63.40
62703;BME280;66022;50.448;18.122;2023-02-28T00:24:47;100489.76;;;0.55;62.80
62703;BME280;66022;50.448;18.122;2023-02-28T00:29:01;100490.40;;;0.52;63.32
62703;BME280;66022;50.448;18.122;2023-02-28T00:33:15;100490.12;;;0.51;63.72
62703;BME280;66022;50.448;18.122;2023-02-28T00:37:29;100489.51;;;0.46;62.94
62703;BME280;66022;50.448;18.122;2023-02-28T00:41:43;100489.60;;;0.46;63.81
62703;BME280;66022;50.448;18.122;2023-02-28T00:45:57;100489.42;;;0.45;63.67
62703;BME280;66022;50.448;18.122;2023-02-28T00:50:11;100490.93;;;0.42;64.06
62703;BME280;66022;50.448;18.122;2023-02-28T00:54:25;100492.21;;;0.41;63.90
62703;BME280;66022;50.448;18.122;2023-02-28T00:58:39;100493.19;;;0.38;63.11
62703;BME280;66022;50.448;18.122;2023-02-28T01:02:53;100494.05;;;0.37;63.58
62703;BME280;66022;50.448;18.122;2023-02-28T01:07:07;100494.06;;;0.34;61.95
62703;BME280;66022;50.448;18.122;2023-02-28T01:11:21;100493.14;;;0.33;62.89
62703;BME280;66022;50.448;18.122;2023-02-28T01:15:35;100492.41;;;0.34;63.42
62703;BME280;66022;50.448;18.122;2023-02-28T01:19:49;100492.08;;;0.31;62.74
62703;BME280;66022;50.448;18.122;2023-02-28T01:24:03;100491.85;;;0.32;63.21
62703;BME280;66022;50.448;18.122;2023-02-28T01:28:17;100491.67;;;0.29;61.46
62703;BME280;66022;50.448;18.122;2023-02-28T01:32:31;100490.50;;;0.28;62.85
62703;BME280;66022;50.448;18.122;2023-02-28T01:36:45;100489.81;;;0.26;62.35
62703;BME280;66022;50.448;18.122;2023-02-28T01:40:59;100489.90;;;0.24;62.38
62703;BME280;66022;50.448;18.122;2023-02-28T01:45:18;100489.48;;;0.24;62.68
62703;BME280;66022;50.448;18.122;2023-02-28T01:49:27;100488.02;;;0.21;61.41
62703;BME280;66022;50.448;18.122;2023-02-28T01:53:45;100485.86;;;0.22;61.92
62703;BME280;66022;50.448;18.122;2023-02-28T01:57:56;100484.76;;;0.21;61.52
62703;BME280;66022;50.448;18.122;2023-02-28T02:02:09;100482.59;;;0.23;62.32
62703;BME280;66022;50.448;18.122;2023-02-28T02:06:25;100480.80;;;0.24;63.00
62703;BME280;66022;50.448;18.122;2023-02-28T02:14:55;100478.10;;;0.28;62.95
62703;BME280;66022;50.448;18.122;2023-02-28T02:27:38;100476.22;;;0.29;62.02
62703;BME280;66022;50.448;18.122;2023-02-28T02:32:02;100474.87;;;0.33;62.52
62703;BME280;66022;50.448;18.122;2023-02-28T02:40:19;100473.63;;;0.35;61.14
62703;BME280;66022;50.448;18.122;2023-02-28T02:48:43;100475.09;;;0.39;61.98
62703;BME280;66022;50.448;18.122;2023-02-28T02:52:58;100475.55;;;0.41;62.54
62703;BME280;66022;50.448;18.122;2023-02-28T02:57:34;100475.76;;;0.39;62.07
62703;BME280;66022;50.448;18.122;2023-02-28T03:01:25;100475.81;;;0.40;63.53
62703;BME280;66022;50.448;18.122;2023-02-28T03:05:42;100476.47;;;0.40;64.00
62703;BME280;66022;50.448;18.122;2023-02-28T03:09:54;100476.75;;;0.36;64.22
62703;BME280;66022;50.448;18.122;2023-02-28T03:14:17;100476.76;;;0.37;64.30
62703;BME280;66022;50.448;18.122;2023-02-28T03:18:31;100476.98;;;0.36;64.35
62703;BME280;66022;50.448;18.122;2023-02-28T03:22:40;100477.66;;;0.37;64.52
62703;BME280;66022;50.448;18.122;2023-02-28T03:26:54;100478.31;;;0.36;64.77
62703;BME280;66022;50.448;18.122;2023-02-28T03:31:07;100479.16;;;0.34;64.80
62703;BME280;66022;50.448;18.122;2023-02-28T03:35:19;100480.17;;;0.33;64.94
62703;BME280;66022;50.448;18.122;2023-02-28T03:43:48;100484.17;;;0.28;63.83
62703;BME280;66022;50.448;18.122;2023-02-28T03:48:04;100486.19;;;0.22;63.40
62703;BME280;66022;50.448;18.122;2023-02-28T03:52:13;100488.57;;;0.19;64.13
62703;BME280;66022;50.448;18.122;2023-02-28T04:00:43;100492.67;;;0.10;63.93
62703;BME280;66022;50.448;18.122;2023-02-28T04:04:55;100494.00;;;0.06;64.67
62703;BME280;66022;50.448;18.122;2023-02-28T04:09:10;100495.78;;;-0.01;63.59
62703;BME280;66022;50.448;18.122;2023-02-28T04:13:24;100497.13;;;-0.04;64.01
62703;BME280;66022;50.448;18.122;2023-02-28T04:17:38;100497.64;;;-0.12;63.60
62703;BME280;66022;50.448;18.122;2023-02-28T04:21:52;100498.64;;;-0.14;63.22
62703;BME280;66022;50.448;18.122;2023-02-28T04:26:06;100500.03;;;-0.17;63.84
62703;BME280;66022;50.448;18.122;2023-02-28T04:30:20;100501.15;;;-0.21;62.54
62703;BME280;66022;50.448;18.122;2023-02-28T04:34:34;100501.98;;;-0.23;63.57
62703;BME280;66022;50.448;18.122;2023-02-28T04:38:48;100503.20;;;-0.26;63.00
62703;BME280;66022;50.448;18.122;2023-02-28T04:43:01;100504.86;;;-0.28;62.67
62703;BME280;66022;50.448;18.122;2023-02-28T04:47:16;100505.41;;;-0.34;61.54
62703;BME280;66022;50.448;18.122;2023-02-28T04:51:29;100507.28;;;-0.35;63.27
62703;BME280;66022;50.448;18.122;2023-02-28T04:55:44;100508.45;;;-0.37;63.34
62703;BME280;66022;50.448;18.122;2023-02-28T04:59:57;100510.94;;;-0.40;63.10
62703;BME280;66022;50.448;18.122;2023-02-28T05:04:11;100512.92;;;-0.40;62.40
62703;BME280;66022;50.448;18.122;2023-02-28T05:08:25;100514.81;;;-0.43;62.68
62703;BME280;66022;50.448;18.122;2023-02-28T05:12:40;100516.03;;;-0.43;62.83
62703;BME280;66022;50.448;18.122;2023-02-28T05:16:54;100517.63;;;-0.44;62.29
62703;BME280;66022;50.448;18.122;2023-02-28T05:25:23;100521.20;;;-0.45;62.53
62703;BME280;66022;50.448;18.122;2023-02-28T05:29:35;100523.44;;;-0.49;61.65
62703;BME280;66022;50.448;18.122;2023-02-28T05:33:49;100525.57;;;-0.50;62.41
62703;BME280;66022;50.448;18.122;2023-02-28T05:38:03;100527.64;;;-0.52;61.75
62703;BME280;66022;50.448;18.122;2023-02-28T05:42:17;100528.23;;;-0.51;61.61
62703;BME280;66022;50.448;18.122;2023-02-28T05:46:31;100530.36;;;-0.51;61.40
62703;BME280;66022;50.448;18.122;2023-02-28T05:50:46;100533.40;;;-0.52;61.77
62703;BME280;66022;50.448;18.122;2023-02-28T05:55:00;100536.78;;;-0.52;61.85
62703;BME280;66022;50.448;18.122;2023-02-28T05:59:15;100541.31;;;-0.54;61.16
62703;BME280;66022;50.448;18.122;2023-02-28T06:03:28;100544.82;;;-0.53;61.43
62703;BME280;66022;50.448;18.122;2023-02-28T06:07:42;100550.41;;;-0.56;60.39
62703;BME280;66022;50.448;18.122;2023-02-28T06:11:57;100554.21;;;-0.54;60.92
62703;BME280;66022;50.448;18.122;2023-02-28T06:16:10;100557.45;;;-0.51;61.63
62703;BME280;66022;50.448;18.122;2023-02-28T06:20:24;100562.22;;;-0.48;60.72
62703;BME280;66022;50.448;18.122;2023-02-28T06:24:37;100566.50;;;-0.41;59.91
62703;BME280;66022;50.448;18.122;2023-02-28T06:28:52;100571.04;;;-0.34;60.17
62703;BME280;66022;50.448;18.122;2023-02-28T06:33:06;100574.33;;;-0.25;59.44
62703;BME280;66022;50.448;18.122;2023-02-28T06:37:20;100578.30;;;-0.19;58.27
62703;BME280;66022;50.448;18.122;2023-02-28T06:41:34;100581.89;;;-0.08;58.23
62703;BME280;66022;50.448;18.122;2023-02-28T06:45:48;100585.19;;;0.02;59.38
62703;BME280;66022;50.448;18.122;2023-02-28T06:50:02;100588.93;;;0.10;57.71
62703;BME280;66022;50.448;18.122;2023-02-28T06:54:16;100591.00;;;0.21;59.50
62703;BME280;66022;50.448;18.122;2023-02-28T06:58:30;100594.51;;;0.29;58.28
62703;BME280;66022;50.448;18.122;2023-02-28T07:02:43;100597.41;;;0.44;58.21
62703;BME280;66022;50.448;18.122;2023-02-28T07:06:58;100598.86;;;0.68;55.74
62703;BME280;66022;50.448;18.122;2023-02-28T07:11:12;100599.95;;;0.96;55.45
62703;BME280;66022;50.448;18.122;2023-02-28T07:15:25;100599.92;;;1.27;58.67
62703;BME280;66022;50.448;18.122;2023-02-28T07:19:40;100600.48;;;1.50;53.09
62703;BME280;66022;50.448;18.122;2023-02-28T07:23:55;100601.78;;;1.79;53.50
62703;BME280;66022;50.448;18.122;2023-02-28T07:28:08;100603.67;;;2.05;52.31
62703;BME280;66022;50.448;18.122;2023-02-28T07:32:22;100605.55;;;2.32;53.73
62703;BME280;66022;50.448;18.122;2023-02-28T07:36:36;100608.98;;;2.56;51.80
62703;BME280;66022;50.448;18.122;2023-02-28T07:40:50;100609.89;;;2.75;52.49
62703;BME280;66022;50.448;18.122;2023-02-28T07:45:04;100611.02;;;2.95;51.16
62703;BME280;66022;50.448;18.122;2023-02-28T07:49:18;100611.99;;;3.06;52.91
62703;BME280;66022;50.448;18.122;2023-02-28T07:53:32;100611.16;;;3.26;52.98
62703;BME280;66022;50.448;18.122;2023-02-28T07:57:46;100611.08;;;3.43;49.87
62703;BME280;66022;50.448;18.122;2023-02-28T08:02:00;100610.61;;;3.65;50.58
62703;BME280;66022;50.448;18.122;2023-02-28T08:06:22;100610.50;;;3.85;50.78
62703;BME280;66022;50.448;18.122;2023-02-28T08:10:28;100610.91;;;4.02;48.77
62703;BME280;66022;50.448;18.122;2023-02-28T08:14:42;100610.38;;;4.19;51.04
62703;BME280;66022;50.448;18.122;2023-02-28T08:18:56;100611.03;;;4.29;47.81
62703;BME280;66022;50.448;18.122;2023-02-28T08:23:10;100611.22;;;4.36;49.39
62703;BME280;66022;50.448;18.122;2023-02-28T08:27:24;100611.42;;;4.32;46.64
62703;BME280;66022;50.448;18.122;2023-02-28T08:31:38;100610.42;;;4.34;48.56
62703;BME280;66022;50.448;18.122;2023-02-28T08:35:52;100609.56;;;4.37;47.75
62703;BME280;66022;50.448;18.122;2023-02-28T08:40:06;100609.44;;;4.38;47.00
62703;BME280;66022;50.448;18.122;2023-02-28T08:44:20;100609.08;;;4.47;47.93
62703;BME280;66022;50.448;18.122;2023-02-28T08:48:34;100609.76;;;4.55;48.49
62703;BME280;66022;50.448;18.122;2023-02-28T08:52:48;100610.27;;;4.70;49.93
62703;BME280;66022;50.448;18.122;2023-02-28T08:57:02;100609.88;;;4.82;47.48
62703;BME280;66022;50.448;18.122;2023-02-28T09:01:20;100610.96;;;4.96;49.35
62703;BME280;66022;50.448;18.122;2023-02-28T09:05:30;100609.83;;;5.13;48.52
62703;BME280;66022;50.448;18.122;2023-02-28T09:09:44;100609.80;;;5.28;48.91
62703;BME280;66022;50.448;18.122;2023-02-28T09:13:58;100610.36;;;5.48;44.66
62703;BME280;66022;50.448;18.122;2023-02-28T09:18:12;100610.43;;;5.51;47.59
62703;BME280;66022;50.448;18.122;2023-02-28T09:22:26;100611.45;;;5.60;47.67
62703;BME280;66022;50.448;18.122;2023-02-28T09:26:40;100612.88;;;5.69;45.05
62703;BME280;66022;50.448;18.122;2023-02-28T09:30:54;100613.05;;;5.69;48.82
62703;BME280;66022;50.448;18.122;2023-02-28T09:35:08;100612.64;;;5.78;48.64
62703;BME280;66022;50.448;18.122;2023-02-28T09:39:22;100614.08;;;5.75;44.44
62703;BME280;66022;50.448;18.122;2023-02-28T09:43:37;100613.72;;;5.83;47.33
62703;BME280;66022;50.448;18.122;2023-02-28T09:47:50;100614.48;;;5.88;47.44
62703;BME280;66022;50.448;18.122;2023-02-28T09:52:05;100615.78;;;5.99;48.83
62703;BME280;66022;50.448;18.122;2023-02-28T09:56:20;100616.49;;;6.09;44.03
62703;BME280;66022;50.448;18.122;2023-02-28T10:04:47;100619.13;;;6.22;48.13
62703;BME280;66022;50.448;18.122;2023-02-28T10:09:04;100619.39;;;6.29;48.19
62703;BME280;66022;50.448;18.122;2023-02-28T10:13:16;100619.26;;;6.45;45.76
62703;BME280;66022;50.448;18.122;2023-02-28T10:17:32;100620.17;;;6.46;44.10
62703;BME280;66022;50.448;18.122;2023-02-28T10:21:44;100621.23;;;6.48;46.79
62703;BME280;66022;50.448;18.122;2023-02-28T10:26:03;100621.72;;;6.53;46.34
62703;BME280;66022;50.448;18.122;2023-02-28T10:30:11;100619.49;;;6.54;46.42
62703;BME280;66022;50.448;18.122;2023-02-28T10:34:24;100617.44;;;6.56;48.29
62703;BME280;66022;50.448;18.122;2023-02-28T10:38:39;100615.16;;;6.59;47.31
62703;BME280;66022;50.448;18.122;2023-02-28T10:42:56;100614.00;;;6.71;46.06
62703;BME280;66022;50.448;18.122;2023-02-28T10:47:11;100612.94;;;6.84;44.02
62703;BME280;66022;50.448;18.122;2023-02-28T10:51:20;100611.11;;;7.03;47.45
62703;BME280;66022;50.448;18.122;2023-02-28T10:55:35;100609.50;;;7.20;46.87
62703;BME280;66022;50.448;18.122;2023-02-28T10:59:52;100609.14;;;7.32;46.33
62703;BME280;66022;50.448;18.122;2023-02-28T11:04:02;100604.94;;;7.55;46.22
62703;BME280;66022;50.448;18.122;2023-02-28T11:08:17;100601.21;;;7.74;45.57
62703;BME280;66022;50.448;18.122;2023-02-28T11:16:44;100595.68;;;7.99;45.69
62703;BME280;66022;50.448;18.122;2023-02-28T11:20:59;100592.38;;;8.02;46.61
62703;BME280;66022;50.448;18.122;2023-02-28T11:29:28;100586.84;;;7.93;42.83
62703;BME280;66022;50.448;18.122;2023-02-28T11:33:44;100583.47;;;7.82;44.68
62703;BME280;66022;50.448;18.122;2023-02-28T11:37:54;100579.75;;;7.71;42.40
62703;BME280;66022;50.448;18.122;2023-02-28T11:54:54;100562.30;;;7.83;41.79
62703;BME280;66022;50.448;18.122;2023-02-28T11:59:10;100559.58;;;7.78;42.23
62703;BME280;66022;50.448;18.122;2023-02-28T12:08:21;100556.21;;;7.52;40.84
62703;BME280;66022;50.448;18.122;2023-02-28T12:11:48;100554.72;;;7.39;41.82
62703;BME280;66022;50.448;18.122;2023-02-28T12:24:37;100541.30;;;7.19;45.64
62703;BME280;66022;50.448;18.122;2023-02-28T12:28:44;100537.58;;;7.15;45.30
62703;BME280;66022;50.448;18.122;2023-02-28T12:33:00;100533.50;;;7.10;46.56
62703;BME280;66022;50.448;18.122;2023-02-28T12:37:13;100529.37;;;7.01;42.95
62703;BME280;66022;50.448;18.122;2023-02-28T12:45:43;100522.64;;;6.78;45.96
62703;BME280;66022;50.448;18.122;2023-02-28T12:50:04;100517.75;;;6.64;47.32
62703;BME280;66022;50.448;18.122;2023-02-28T13:11:02;100501.96;;;6.33;49.08
62703;BME280;66022;50.448;18.122;2023-02-28T13:19:31;100495.72;;;6.07;47.95
62703;BME280;66022;50.448;18.122;2023-02-28T13:27:59;100489.59;;;5.81;49.04
62703;BME280;66022;50.448;18.122;2023-02-28T13:36:27;100485.57;;;5.75;50.45
62703;BME280;66022;50.448;18.122;2023-02-28T13:40:40;100484.88;;;5.73;49.56
62703;BME280;66022;50.448;18.122;2023-02-28T13:49:29;100484.36;;;5.69;49.40
62703;BME280;66022;50.448;18.122;2023-02-28T13:53:27;100483.03;;;5.68;49.88
62703;BME280;66022;50.448;18.122;2023-02-28T14:18:52;100472.42;;;5.62;49.73
62703;BME280;66022;50.448;18.122;2023-02-28T14:39:57;100456.42;;;5.52;50.01
62703;BME280;66022;50.448;18.122;2023-02-28T14:48:25;100449.98;;;5.47;50.61
62703;BME280;66022;50.448;18.122;2023-02-28T14:52:39;100446.62;;;5.45;51.65
62703;BME280;66022;50.448;18.122;2023-02-28T14:56:53;100444.42;;;5.43;51.88
62703;BME280;66022;50.448;18.122;2023-02-28T15:01:09;100442.17;;;5.43;51.02
62703;BME280;66022;50.448;18.122;2023-02-28T15:09:36;100440.26;;;5.40;50.80
62703;BME280;66022;50.448;18.122;2023-02-28T15:13:50;100439.35;;;5.40;50.74
62703;BME280;66022;50.448;18.122;2023-02-28T15:18:03;100438.92;;;5.34;49.90
62703;BME280;66022;50.448;18.122;2023-02-28T15:22:17;100437.55;;;5.31;51.77
62703;BME280;66022;50.448;18.122;2023-02-28T15:26:32;100435.99;;;5.29;52.49
62703;BME280;66022;50.448;18.122;2023-02-28T15:34:59;100431.25;;;5.24;52.53
62703;BME280;66022;50.448;18.122;2023-02-28T15:43:28;100429.30;;;5.12;52.57
62703;BME280;66022;50.448;18.122;2023-02-28T15:47:44;100428.20;;;5.03;51.42
62703;BME280;66022;50.448;18.122;2023-02-28T15:51:55;100427.22;;;5.01;53.49
62703;BME280;66022;50.448;18.122;2023-02-28T16:00:23;100428.16;;;4.90;53.81
62703;BME280;66022;50.448;18.122;2023-02-28T16:04:37;100428.51;;;4.85;54.46
62703;BME280;66022;50.448;18.122;2023-02-28T16:08:51;100429.27;;;4.77;54.23
62703;BME280;66022;50.448;18.122;2023-02-28T16:13:05;100430.16;;;4.71;54.49
62703;BME280;66022;50.448;18.122;2023-02-28T16:17:24;100432.06;;;4.60;52.86
62703;BME280;66022;50.448;18.122;2023-02-28T16:21:33;100433.28;;;4.54;55.20
62703;BME280;66022;50.448;18.122;2023-02-28T16:25:47;100434.66;;;4.48;55.75
62703;BME280;66022;50.448;18.122;2023-02-28T16:30:01;100436.11;;;4.39;55.88
62703;BME280;66022;50.448;18.122;2023-02-28T16:34:15;100437.77;;;4.34;55.80
62703;BME280;66022;50.448;18.122;2023-02-28T16:38:29;100440.23;;;4.25;56.44
62703;BME280;66022;50.448;18.122;2023-02-28T16:42:43;100443.10;;;4.20;56.03
62703;BME280;66022;50.448;18.122;2023-02-28T16:46:57;100446.09;;;4.12;56.95
62703;BME280;66022;50.448;18.122;2023-02-28T16:51:11;100449.08;;;4.01;57.31
62703;BME280;66022;50.448;18.122;2023-02-28T16:55:25;100452.14;;;3.90;57.52
62703;BME280;66022;50.448;18.122;2023-02-28T16:59:39;100455.38;;;3.72;58.01
62703;BME280;66022;50.448;18.122;2023-02-28T17:03:53;100457.48;;;3.63;57.22
62703;BME280;66022;50.448;18.122;2023-02-28T17:08:08;100460.55;;;3.50;56.76
62703;BME280;66022;50.448;18.122;2023-02-28T17:12:21;100463.79;;;3.40;57.89
62703;BME280;66022;50.448;18.122;2023-02-28T17:16:35;100466.54;;;3.28;59.53
62703;BME280;66022;50.448;18.122;2023-02-28T17:20:49;100467.88;;;3.13;60.25
62703;BME280;66022;50.448;18.122;2023-02-28T17:25:03;100469.59;;;2.99;60.79
62703;BME280;66022;50.448;18.122;2023-02-28T17:29:20;100471.01;;;2.82;59.92
62703;BME280;66022;50.448;18.122;2023-02-28T17:33:31;100472.52;;;2.71;59.09
62703;BME280;66022;50.448;18.122;2023-02-28T17:37:45;100473.04;;;2.55;58.96
62703;BME280;66022;50.448;18.122;2023-02-28T17:41:59;100473.05;;;2.47;59.03
62703;BME280;66022;50.448;18.122;2023-02-28T17:46:17;100474.32;;;2.39;58.45
62703;BME280;66022;50.448;18.122;2023-02-28T17:50:27;100475.87;;;2.31;59.27
62703;BME280;66022;50.448;18.122;2023-02-28T17:54:41;100477.31;;;2.25;60.61
62703;BME280;66022;50.448;18.122;2023-02-28T17:58:55;100476.59;;;2.19;61.26
62703;BME280;66022;50.448;18.122;2023-02-28T18:03:09;100476.31;;;2.14;61.54
62703;BME280;66022;50.448;18.122;2023-02-28T18:07:23;100476.45;;;2.04;60.86
62703;BME280;66022;50.448;18.122;2023-02-28T18:11:37;100477.80;;;2.01;61.28
62703;BME280;66022;50.448;18.122;2023-02-28T18:15:53;100478.78;;;1.96;62.26
62703;BME280;66022;50.448;18.122;2023-02-28T18:20:05;100479.81;;;1.87;63.10
62703;BME280;66022;50.448;18.122;2023-02-28T18:24:22;100481.16;;;1.80;63.07
62703;BME280;66022;50.448;18.122;2023-02-28T18:28:33;100480.41;;;1.72;64.09
62703;BME280;66022;50.448;18.122;2023-02-28T18:32:51;100479.27;;;1.67;63.20
62703;BME280;66022;50.448;18.122;2023-02-28T18:37:01;100476.72;;;1.61;63.98
62703;BME280;66022;50.448;18.122;2023-02-28T18:41:15;100474.69;;;1.54;64.25
62703;BME280;66022;50.448;18.122;2023-02-28T18:45:29;100472.39;;;1.48;64.10
62703;BME280;66022;50.448;18.122;2023-02-28T18:49:43;100472.13;;;1.37;63.18
62703;BME280;66022;50.448;18.122;2023-02-28T18:54:00;100471.15;;;1.35;62.65
62703;BME280;66022;50.448;18.122;2023-02-28T18:58:11;100470.20;;;1.32;64.55
62703;BME280;66022;50.448;18.122;2023-02-28T19:02:25;100469.16;;;1.31;63.53
62703;BME280;66022;50.448;18.122;2023-02-28T19:06:45;100468.89;;;1.30;62.93
62703;BME280;66022;50.448;18.122;2023-02-28T19:10:53;100468.84;;;1.28;63.83
62703;BME280;66022;50.448;18.122;2023-02-28T19:15:10;100467.72;;;1.28;63.92
62703;BME280;66022;50.448;18.122;2023-02-28T19:19:21;100467.00;;;1.24;62.07
62703;BME280;66022;50.448;18.122;2023-02-28T19:23:35;100467.03;;;1.26;60.81
62703;BME280;66022;50.448;18.122;2023-02-28T19:27:52;100467.55;;;1.28;60.34
62703;BME280;66022;50.448;18.122;2023-02-28T19:32:07;100468.16;;;1.33;60.08
62703;BME280;66022;50.448;18.122;2023-02-28T19:36:19;100470.07;;;1.38;60.21
62703;BME280;66022;50.448;18.122;2023-02-28T19:40:31;100471.19;;;1.41;60.09
62703;BME280;66022;50.448;18.122;2023-02-28T19:44:45;100471.09;;;1.46;60.25
62703;BME280;66022;50.448;18.122;2023-02-28T19:48:59;100471.58;;;1.50;61.92
62703;BME280;66022;50.448;18.122;2023-02-28T19:53:13;100470.95;;;1.56;60.57
62703;BME280;66022;50.448;18.122;2023-02-28T19:57:27;100470.64;;;1.58;59.72
62703;BME280;66022;50.448;18.122;2023-02-28T20:01:41;100470.11;;;1.63;60.39
62703;BME280;66022;50.448;18.122;2023-02-28T20:06:00;100470.25;;;1.68;60.61
62703;BME280;66022;50.448;18.122;2023-02-28T20:10:09;100468.52;;;1.69;60.21
62703;BME280;66022;50.448;18.122;2023-02-28T20:14:23;100467.58;;;1.70;60.94
62703;BME280;66022;50.448;18.122;2023-02-28T20:18:37;100466.46;;;1.69;61.02
62703;BME280;66022;50.448;18.122;2023-02-28T20:22:51;100464.45;;;1.68;60.39
62703;BME280;66022;50.448;18.122;2023-02-28T20:27:05;100464.08;;;1.64;60.33
62703;BME280;66022;50.448;18.122;2023-02-28T20:31:20;100463.56;;;1.61;60.56
62703;BME280;66022;50.448;18.122;2023-02-28T20:35:36;100463.22;;;1.58;60.73
62703;BME280;66022;50.448;18.122;2023-02-28T20:39:48;100462.83;;;1.52;60.90
62703;BME280;66022;50.448;18.122;2023-02-28T20:44:01;100461.64;;;1.50;61.32
62703;BME280;66022;50.448;18.122;2023-02-28T20:48:15;100461.64;;;1.46;61.37
62703;BME280;66022;50.448;18.122;2023-02-28T20:52:29;100461.60;;;1.42;60.92
62703;BME280;66022;50.448;18.122;2023-02-28T20:56:44;100461.55;;;1.39;61.74
62703;BME280;66022;50.448;18.122;2023-02-28T21:05:11;100460.44;;;1.32;60.94
62703;BME280;66022;50.448;18.122;2023-02-28T21:09:25;100460.19;;;1.25;61.04
62703;BME280;66022;50.448;18.122;2023-02-28T21:13:39;100460.77;;;1.25;61.11
62703;BME280;66022;50.448;18.122;2023-02-28T21:17:53;100461.08;;;1.20;60.97
62703;BME280;66022;50.448;18.122;2023-02-28T21:22:07;100461.63;;;1.21;61.04
62703;BME280;66022;50.448;18.122;2023-02-28T21:26:21;100461.74;;;1.20;61.12
62703;BME280;66022;50.448;18.122;2023-02-28T21:30:35;100462.55;;;1.19;61.14
62703;BME280;66022;50.448;18.122;2023-02-28T21:34:49;100462.32;;;1.20;60.83
62703;BME280;66022;50.448;18.122;2023-02-28T21:39:04;100463.33;;;1.18;60.91
62703;BME280;66022;50.448;18.122;2023-02-28T21:43:17;100463.00;;;1.18;60.98
62703;BME280;66022;50.448;18.122;2023-02-28T21:47:31;100463.09;;;1.13;60.43
62703;BME280;66022;50.448;18.122;2023-02-28T21:51:45;100463.86;;;1.14;60.43
62703;BME280;66022;50.448;18.122;2023-02-28T21:55:59;100464.28;;;1.14;61.56
62703;BME280;66022;50.448;18.122;2023-02-28T22:00:13;100466.60;;;1.12;63.00
62703;BME280;66022;50.448;18.122;2023-02-28T22:04:27;100468.75;;;1.11;63.12
62703;BME280;66022;50.448;18.122;2023-02-28T22:08:42;100470.78;;;1.09;63.47
62703;BME280;66022;50.448;18.122;2023-02-28T22:12:55;100472.42;;;1.08;62.57
62703;BME280;66022;50.448;18.122;2023-02-28T22:17:09;100474.72;;;1.03;62.31
62703;BME280;66022;50.448;18.122;2023-02-28T22:21:23;100475.97;;;1.01;62.68
62703;BME280;66022;50.448;18.122;2023-02-28T22:25:37;100478.44;;;1.00;62.72
62703;BME280;66022;50.448;18.122;2023-02-28T22:29:53;100479.91;;;0.95;63.03
62703;BME280;66022;50.448;18.122;2023-02-28T22:34:06;100482.40;;;0.95;62.68
62703;BME280;66022;50.448;18.122;2023-02-28T22:38:19;100483.32;;;0.93;62.85
62703;BME280;66022;50.448;18.122;2023-02-28T22:42:33;100484.02;;;0.94;62.82
62703;BME280;66022;50.448;18.122;2023-02-28T22:46:51;100483.75;;;0.91;63.62
62703;BME280;66022;50.448;18.122;2023-02-28T22:51:05;100483.85;;;0.87;63.62
62703;BME280;66022;50.448;18.122;2023-02-28T22:55:15;100485.43;;;0.85;63.84
62703;BME280;66022;50.448;18.122;2023-02-28T22:59:29;100488.30;;;0.77;64.08
62703;BME280;66022;50.448;18.122;2023-02-28T23:03:43;100489.72;;;0.76;63.54
62703;BME280;66022;50.448;18.122;2023-02-28T23:07:57;100492.80;;;0.71;63.80
62703;BME280;66022;50.448;18.122;2023-02-28T23:12:11;100496.38;;;0.70;62.54
62703;BME280;66022;50.448;18.122;2023-02-28T23:20:39;100501.06;;;0.65;64.07
62703;BME280;66022;50.448;18.122;2023-02-28T23:24:53;100503.20;;;0.62;64.63
62703;BME280;66022;50.448;18.122;2023-02-28T23:29:07;100505.30;;;0.56;65.82
62703;BME280;66022;50.448;18.122;2023-02-28T23:33:21;100504.75;;;0.53;64.76
62703;BME280;66022;50.448;18.122;2023-02-28T23:37:35;100504.92;;;0.43;65.06
62703;BME280;66022;50.448;18.122;2023-02-28T23:41:49;100504.03;;;0.41;64.40
62703;BME280;66022;50.448;18.122;2023-02-28T23:46:03;100502.76;;;0.40;64.53
62703;BME280;66022;50.448;18.122;2023-02-28T23:50:17;100500.56;;;0.39;64.35
62703;BME280;66022;50.448;18.122;2023-02-28T23:54:38;100498.61;;;0.42;63.62
62703;BME280;66022;50.448;18.122;2023-02-28T23:58:46;100495.22;;;0.41;64.58
